Details From OMRK - RAS AL KHAIMAH INTL
To VNKT - Kathmandu Tribhuvan Intl
Flight Number -
Tags decoded
Created
Modified
Stats Distance 1,612 nm / 2,986 km
Max Altitude 0 ft / 0 m
Waypoints 4
Social Downloads 0
Likes 0
Share VATSIM

Download

Looking for another format? Having issues loading an existing format? Contact us
Advertisement - Login to hide

Notes

Requested: OMRK DARAX TIGER VNKT

Route

OMRK DARAX TIGER VNKT

ID Type Via Altitude Latitude Longitude Leg Dist Tot Dist Heading (true) Name
O OMRK APT - 0 ft / 0 m 25.61335˚ 55.93883˚ - 0 nm - RAS AL KHAIMAH INTL
DARAX FIX - 0 ft / 0 m 26.16167˚ 55.88333˚ 33 nm 33 nm 355° / 355° -
TIGER FIX - 0 ft / 0 m 28.46694˚ 72.24944˚ 883 nm 916 nm 77° / 85° -
O VNKT APT - 0 ft / 0 m 27.69658˚ 85.35910˚ 695 nm 1612 nm 91° / 97° Kathmandu Tribhuvan Intl

Altitude Profile

Advertisement - Login to hide

Weather


0- 5 10 15 20 25 30 35+ Temperature / ° C

Clouds and Precipitation
Forecast for 2017-12-17 12:00 UTC. Updated 39 minutes ago

Ground ~20,000 ft ~40,000 ft Winds

OMRK

Details ICAO OMRK (RKT)
Name RAS AL KHAIMAH INTL
Region United Arab Emirates
Timezone Asia/Dubai (UTC+4.0)
Stats Elevation 102 ft / 31 m (AMSL)
Location 25.613352° 55.938831°
Runways 1
Magnetic Variation 2.053° E

METAR

OMRK 171100Z 13011KT 9999 SCT040 22/13 Q1013 A3007

Decode

TAF

TAF OMRK 171049Z 1712/1818 12015KT 8000 SCT040 PROB30 TEMPO 1712/1720 VRB20G30KT 1500 TSRA BLDU SCT040CB BECMG 1810/1812 33010KT

Decode

Departure Runways

ID Width Length Bearing (true) Bearing (mag) Surface Threshold Offset Overrun Length
16 148 ft / 45 m 12,391 ft / 3,777 m 164.83° 162.78° Asphalt 0 ft / 0 m 165 ft / 50 m
34 148 ft / 45 m 12,391 ft / 3,777 m 344.84° 342.79° Asphalt 0 ft / 0 m 165 ft / 50 m

VNKT

Details ICAO VNKT (KTM)
Name Kathmandu Tribhuvan Intl
Region Nepal
Timezone Asia/Kathmandu (UTC+5.8)
Stats Elevation 4,390 ft / 1,338 m (AMSL)
Location 27.696583° 85.359100°
Runways 1
Magnetic Variation 0.492° E

METAR

VNKT 171120Z 26006KT 5000 HZ FEW015 14/08 Q1021 NOSIG

Decode

TAF

TAF VNKT 171100Z 1712/1812 28003KT 6000 FEW015 BECMG 1713/1714 VRB02KT 5000 BR FEW015 BECMG 1800/18002 00000KT 4000 BR FEW010 PROB40 1801/1803 2000 BR FEW010 BECMG 1805/1806 12003KT 5000 HZ FEW015 BECMG 1807/1809 28005KT 7000 FEW020

Decode

Destination Runways

ID Width Length Bearing (true) Bearing (mag) Surface Threshold Offset Overrun Length
02 148 ft / 45 m 10,017 ft / 3,053 m 21.50° 21.01° Asphalt 0 ft / 0 m 0 ft / 0 m
20 148 ft / 45 m 10,017 ft / 3,053 m 201.51° 201.02° Asphalt 400 ft / 122 m 0 ft / 0 m

Popular Alternatives